Time;durP1;ratioP1;P1;durP2;ratioP2;P2;SDS_P1;SDS_P2;PMS_P1;PMS_P2;Temp;Humidity;BMP_temperature;BMP_pressure;BME280_temperature;BME280_humidity;BME280_pressure;Samples;Min_cycle;Max_cycle;Signal;HPM_P1;HPM_P2
2022/09/01 00:00:27;;;;;;;;;;;20.10;73.20;;;;;;5038609;28;19968;-75
2022/09/01 00:02:54;;;;;;;;;;;20.10;73.30;;;;;;5043275;28;20031;-76
2022/09/01 00:05:21;;;;;;;;;;;20.10;73.30;;;;;;5046241;28;19932;-77
2022/09/01 00:07:48;;;;;;;;;;;20.10;73.30;;;;;;5043522;28;19928;-75
2022/09/01 00:10:15;;;;;;;;;;;20.00;73.20;;;;;;5046822;28;19929;-76
2022/09/01 00:12:42;;;;;;;;;;;20.00;73.10;;;;;;5047483;28;19932;-75
2022/09/01 00:15:11;;;;;;;;;;;20.00;73.20;;;;;;5046299;28;19935;-75
2022/09/01 00:17:38;;;;;;;;;;;19.90;73.10;;;;;;5049233;28;19924;-75
2022/09/01 00:20:05;;;;;;;;;;;19.90;73.20;;;;;;5048208;28;20358;-75
2022/09/01 00:22:32;;;;;;;;;;;19.90;73.20;;;;;;5047149;28;20518;-76
2022/09/01 00:25:00;;;;;;;;;;;19.90;73.20;;;;;;5046779;28;19982;-75
2022/09/01 00:27:26;;;;;;;;;;;19.90;73.30;;;;;;5047066;28;20056;-75
2022/09/01 00:29:53;;;;;;;;;;;19.90;73.30;;;;;;5047609;28;19937;-76
2022/09/01 00:32:20;;;;;;;;;;;19.80;73.10;;;;;;5046012;28;19929;-75
2022/09/01 00:34:47;;;;;;;;;;;19.80;73.20;;;;;;5049182;28;19933;-76
2022/09/01 00:37:14;;;;;;;;;;;19.80;73.20;;;;;;5048548;28;19936;-75
2022/09/01 00:39:40;;;;;;;;;;;19.80;74.00;;;;;;5049186;28;19932;-76
2022/09/01 00:42:07;;;;;;;;;;;19.80;73.30;;;;;;5048426;28;19936;-76
2022/09/01 00:44:35;;;;;;;;;;;19.70;73.50;;;;;;5046677;28;19929;-76
2022/09/01 00:47:01;;;;;;;;;;;19.70;73.30;;;;;;5046465;28;19936;-75
2022/09/01 00:49:32;;;;;;;;;;;19.70;73.40;;;;;;5046184;28;19971;-76
2022/09/01 00:52:01;;;;;;;;;;;19.70;73.40;;;;;;5049789;28;19929;-76
2022/09/01 00:54:30;;;;;;;;;;;19.70;73.50;;;;;;5042500;28;20297;-76
2022/09/01 00:56:57;;;;;;;;;;;19.70;73.60;;;;;;5047337;28;19935;-75
2022/09/01 00:59:24;;;;;;;;;;;19.60;73.40;;;;;;5046767;28;19933;-74
2022/09/01 01:01:52;;;;;;;;;;;19.60;73.60;;;;;;5047236;28;19936;-74
2022/09/01 01:04:18;;;;;;;;;;;19.60;73.60;;;;;;5053247;28;19929;-75
2022/09/01 01:06:57;;;;;;;;;;;19.60;73.60;;;;;;5049510;28;19933;-75
2022/09/01 01:09:25;;;;;;;;;;;19.60;73.50;;;;;;5050191;28;19968;-75
2022/09/01 01:11:52;;;;;;;;;;;19.50;73.60;;;;;;5047880;28;19935;-75
2022/09/01 01:14:18;;;;;;;;;;;19.50;74.50;;;;;;5048409;28;19940;-76
2022/09/01 01:16:46;;;;;;;;;;;19.50;73.80;;;;;;5048079;28;19929;-74
2022/09/01 01:23:01;;;;;;;;;;;19.50;73.80;;;;;;5045517;28;20299;-76
2022/09/01 01:24:55;;;;;;;;;;;19.40;73.80;;;;;;5043090;28;19943;-75
2022/09/01 01:27:22;;;;;;;;;;;19.40;73.90;;;;;;5044335;28;19936;-75
2022/09/01 01:29:49;;;;;;;;;;;19.40;73.90;;;;;;5043675;28;19948;-76
2022/09/01 01:32:15;;;;;;;;;;;19.40;74.00;;;;;;5033191;28;20452;-78
2022/09/01 01:34:45;;;;;;;;;;;19.30;74.00;;;;;;5042627;28;21237;-76
2022/09/01 01:37:13;;;;;;;;;;;19.30;74.10;;;;;;5037673;28;19944;-76
2022/09/01 01:39:41;;;;;;;;;;;19.30;74.10;;;;;;5037712;28;19964;-76
2022/09/01 01:42:11;;;;;;;;;;;19.30;74.20;;;;;;5042776;28;20026;-77
2022/09/01 01:44:37;;;;;;;;;;;19.30;74.30;;;;;;5045220;28;20018;-75
2022/09/01 01:47:07;;;;;;;;;;;19.30;74.30;;;;;;5042206;28;19933;-76
2022/09/01 01:49:34;;;;;;;;;;;19.20;74.30;;;;;;5042379;28;20017;-75
2022/09/01 01:52:00;;;;;;;;;;;19.20;74.30;;;;;;5042463;28;19932;-75
2022/09/01 01:54:31;;;;;;;;;;;19.20;74.20;;;;;;5038852;28;19929;-75
2022/09/01 01:56:57;;;;;;;;;;;19.20;74.20;;;;;;5043268;28;19929;-75
2022/09/01 01:59:27;;;;;;;;;;;19.20;74.30;;;;;;5040993;28;19943;-75
2022/09/01 02:01:55;;;;;;;;;;;19.10;75.10;;;;;;5038711;28;20435;-75
2022/09/01 02:04:21;;;;;;;;;;;19.10;74.30;;;;;;5041789;28;20324;-75
2022/09/01 02:06:50;;;;;;;;;;;19.10;74.40;;;;;;5040971;28;19933;-76
2022/09/01 02:09:18;;;;;;;;;;;19.10;74.50;;;;;;5035444;28;19935;-75
2022/09/01 02:11:45;;;;;;;;;;;19.10;75.10;;;;;;5038150;28;19932;-74
2022/09/01 02:14:14;;;;;;;;;;;19.00;74.40;;;;;;5038312;28;19936;-69
2022/09/01 02:16:42;;;;;;;;;;;19.00;74.40;;;;;;5044031;28;19928;-69
2022/09/01 02:19:11;;;;;;;;;;;19.00;74.50;;;;;;5045880;28;19925;-69
2022/09/01 02:21:39;;;;;;;;;;;19.00;74.50;;;;;;5041481;28;19935;-69
2022/09/01 02:24:07;;;;;;;;;;;19.00;74.60;;;;;;5042054;28;19966;-69
2022/09/01 02:26:37;;;;;;;;;;;19.00;74.70;;;;;;5044419;28;19939;-68
2022/09/01 02:29:05;;;;;;;;;;;18.90;74.70;;;;;;5039349;28;19928;-69
2022/09/01 02:31:34;;;;;;;;;;;18.90;74.60;;;;;;5041236;28;19932;-69
2022/09/01 02:34:03;;;;;;;;;;;18.90;74.80;;;;;;5043060;28;20025;-69
2022/09/01 02:36:31;;;;;;;;;;;18.90;74.80;;;;;;5041518;28;20508;-69
2022/09/01 02:38:58;;;;;;;;;;;18.90;74.90;;;;;;5041002;28;20011;-69
2022/09/01 02:41:33;;;;;;;;;;;18.90;74.80;;;;;;5040617;28;19924;-69
2022/09/01 02:44:00;;;;;;;;;;;18.80;74.80;;;;;;5041462;28;19936;-69
2022/09/01 02:46:28;;;;;;;;;;;18.80;74.90;;;;;;5042509;28;20015;-69
2022/09/01 02:48:55;;;;;;;;;;;18.80;74.90;;;;;;5042292;28;19940;-68
2022/09/01 02:51:24;;;;;;;;;;;18.80;74.90;;;;;;5041506;28;19940;-69
2022/09/01 02:53:51;;;;;;;;;;;18.80;75.00;;;;;;5042684;28;19939;-69
2022/09/01 02:56:19;;;;;;;;;;;18.80;75.10;;;;;;5041274;28;19963;-69
2022/09/01 02:58:46;;;;;;;;;;;18.70;75.10;;;;;;5043365;28;20347;-69
2022/09/01 03:01:13;;;;;;;;;;;18.70;75.10;;;;;;5040966;28;20392;-69
2022/09/01 03:03:40;;;;;;;;;;;18.70;75.10;;;;;;5042002;28;19928;-69
2022/09/01 03:06:09;;;;;;;;;;;18.70;75.20;;;;;;5043738;28;19929;-69
2022/09/01 03:08:38;;;;;;;;;;;18.60;75.20;;;;;;5040236;28;19939;-69
2022/09/01 03:11:07;;;;;;;;;;;18.60;75.30;;;;;;5042180;28;19939;-69
2022/09/01 03:13:33;;;;;;;;;;;18.60;75.20;;;;;;5042147;28;20036;-69
2022/09/01 03:16:00;;;;;;;;;;;18.60;75.20;;;;;;5040960;28;19932;-69
2022/09/01 03:18:26;;;;;;;;;;;18.60;75.30;;;;;;5042447;28;20058;-68
2022/09/01 03:20:53;;;;;;;;;;;18.50;75.20;;;;;;5042450;28;20336;-68
2022/09/01 03:23:20;;;;;;;;;;;18.60;75.40;;;;;;5038798;28;19959;-69
2022/09/01 03:25:48;;;;;;;;;;;18.50;75.40;;;;;;5042380;28;19929;-69
2022/09/01 03:28:15;;;;;;;;;;;18.50;75.40;;;;;;5041113;28;19928;-69
2022/09/01 03:30:45;;;;;;;;;;;18.50;75.40;;;;;;5041546;28;19943;-69
2022/09/01 03:33:12;;;;;;;;;;;18.50;75.40;;;;;;5041107;28;19933;-69
2022/09/01 03:35:38;;;;;;;;;;;18.40;75.50;;;;;;5043056;28;19990;-69
2022/09/01 03:38:05;;;;;;;;;;;18.40;75.40;;;;;;5041817;28;19940;-69
2022/09/01 03:40:33;;;;;;;;;;;18.40;75.50;;;;;;5040289;28;20437;-69
2022/09/01 03:43:02;;;;;;;;;;;18.40;75.60;;;;;;5040983;28;19928;-69
2022/09/01 03:45:29;;;;;;;;;;;18.40;75.70;;;;;;5041275;28;19929;-69
2022/09/01 03:47:56;;;;;;;;;;;18.40;75.70;;;;;;5040277;28;19933;-69
2022/09/01 03:50:24;;;;;;;;;;;18.30;75.70;;;;;;5041315;28;19925;-69
2022/09/01 03:52:52;;;;;;;;;;;18.30;75.80;;;;;;5040928;28;20388;-69
2022/09/01 03:55:22;;;;;;;;;;;18.30;75.80;;;;;;5040225;28;20459;-69
2022/09/01 03:57:48;;;;;;;;;;;18.30;75.90;;;;;;5041674;28;20357;-69
2022/09/01 04:00:21;;;;;;;;;;;18.30;75.90;;;;;;5041738;28;19933;-69
2022/09/01 04:02:49;;;;;;;;;;;18.30;75.90;;;;;;5040186;28;20363;-69
2022/09/01 04:05:17;;;;;;;;;;;18.20;75.90;;;;;;5036873;28;19956;-68
2022/09/01 04:07:45;;;;;;;;;;;18.20;76.00;;;;;;5040318;28;20315;-69
2022/09/01 04:10:12;;;;;;;;;;;18.20;76.00;;;;;;5037477;28;20330;-68
2022/09/01 04:12:39;;;;;;;;;;;18.20;76.10;;;;;;5040023;28;19929;-69
2022/09/01 04:15:06;;;;;;;;;;;18.20;76.10;;;;;;5036180;28;19933;-67
2022/09/01 04:20:20;;;;;;;;;;;18.20;76.90;;;;;;5042262;28;19987;-69
2022/09/01 04:22:47;;;;;;;;;;;18.10;76.10;;;;;;5038570;28;19936;-69
2022/09/01 04:25:14;;;;;;;;;;;18.10;76.20;;;;;;5037948;28;19929;-69
2022/09/01 04:27:41;;;;;;;;;;;18.10;76.30;;;;;;5042224;28;19940;-69
2022/09/01 04:30:09;;;;;;;;;;;18.10;76.30;;;;;;5040380;28;19936;-69
2022/09/01 04:32:39;;;;;;;;;;;18.00;76.10;;;;;;5040110;28;19929;-69
2022/09/01 04:35:06;;;;;;;;;;;18.00;76.20;;;;;;5040937;28;19933;-69
2022/09/01 04:37:35;;;;;;;;;;;18.00;76.20;;;;;;5041885;28;19929;-69
2022/09/01 04:40:02;;;;;;;;;;;18.00;76.30;;;;;;5038078;28;19929;-68
2022/09/01 04:42:31;;;;;;;;;;;18.00;76.30;;;;;;5039765;28;19939;-69
2022/09/01 04:44:58;;;;;;;;;;;18.00;76.30;;;;;;5040690;28;19979;-69
2022/09/01 04:47:28;;;;;;;;;;;17.90;76.30;;;;;;5039981;28;20062;-69
2022/09/01 04:49:57;;;;;;;;;;;17.90;76.40;;;;;;5038422;28;19978;-68
2022/09/01 04:52:24;;;;;;;;;;;17.90;76.30;;;;;;5039936;28;19928;-69
2022/09/01 04:54:51;;;;;;;;;;;17.90;76.40;;;;;;5038510;28;19929;-68
2022/09/01 04:57:17;;;;;;;;;;;17.90;76.40;;;;;;5043975;28;19928;-69
2022/09/01 04:59:44;;;;;;;;;;;17.80;76.40;;;;;;5044054;28;19929;-69
2022/09/01 05:02:11;;;;;;;;;;;17.80;76.40;;;;;;5043000;28;19987;-68
2022/09/01 05:04:43;;;;;;;;;;;17.80;76.40;;;;;;5042781;28;19935;-68
2022/09/01 05:07:13;;;;;;;;;;;17.60;76.40;;;;;;5039736;28;20570;-68
2022/09/01 05:09:40;;;;;;;;;;;17.50;77.60;;;;;;5044939;28;19983;-68
2022/09/01 05:12:10;;;;;;;;;;;17.50;77.90;;;;;;5044040;28;19933;-68
2022/09/01 05:14:38;;;;;;;;;;;17.40;77.80;;;;;;5041303;28;19929;-66
2022/09/01 05:17:09;;;;;;;;;;;17.50;77.70;;;;;;5042318;28;19941;-68
2022/09/01 05:19:36;;;;;;;;;;;17.50;77.60;;;;;;5045497;28;19960;-68
2022/09/01 05:22:03;;;;;;;;;;;17.50;77.40;;;;;;5043613;28;20044;-68
2022/09/01 05:24:33;;;;;;;;;;;17.50;77.40;;;;;;5039191;28;19928;-68
2022/09/01 05:27:00;;;;;;;;;;;17.50;77.20;;;;;;5045400;28;19975;-69
2022/09/01 05:29:27;;;;;;;;;;;17.50;77.10;;;;;;5045199;28;19933;-68
2022/09/01 05:31:54;;;;;;;;;;;17.50;77.10;;;;;;5043441;28;19994;-68
2022/09/01 05:34:25;;;;;;;;;;;17.50;77.00;;;;;;5041897;28;20039;-69
2022/09/01 05:36:51;;;;;;;;;;;17.50;77.00;;;;;;5044634;28;19951;-68
2022/09/01 05:39:18;;;;;;;;;;;17.50;76.90;;;;;;5044082;28;19933;-69
2022/09/01 05:41:48;;;;;;;;;;;17.50;76.80;;;;;;5043970;28;19928;-69
2022/09/01 05:44:15;;;;;;;;;;;17.50;76.80;;;;;;5045525;28;20738;-69
2022/09/01 05:46:43;;;;;;;;;;;17.50;76.90;;;;;;5043761;28;19929;-68
2022/09/01 05:49:12;;;;;;;;;;;17.40;76.80;;;;;;5044306;28;20379;-68
2022/09/01 05:51:41;;;;;;;;;;;17.50;76.90;;;;;;5044226;28;19967;-68
2022/09/01 05:54:08;;;;;;;;;;;17.40;76.90;;;;;;5042208;28;20036;-68
2022/09/01 05:56:38;;;;;;;;;;;17.50;77.00;;;;;;5045504;28;19932;-68
2022/09/01 05:59:06;;;;;;;;;;;17.50;76.90;;;;;;5044460;28;19936;-68
2022/09/01 06:01:33;;;;;;;;;;;17.40;76.80;;;;;;5044205;28;19932;-68
2022/09/01 06:04:02;;;;;;;;;;;17.40;76.80;;;;;;5044347;28;20300;-68
2022/09/01 06:06:31;;;;;;;;;;;17.40;77.60;;;;;;5045994;28;19935;-68
2022/09/01 06:08:58;;;;;;;;;;;17.40;76.80;;;;;;5043088;28;19951;-68
2022/09/01 06:11:25;;;;;;;;;;;17.40;76.70;;;;;;5043651;28;20551;-69
2022/09/01 06:13:55;;;;;;;;;;;17.40;76.70;;;;;;5040391;28;19928;-69
2022/09/01 06:16:24;;;;;;;;;;;17.40;76.80;;;;;;5040769;28;19924;-68
2022/09/01 06:18:51;;;;;;;;;;;17.30;76.80;;;;;;5047920;28;19932;-69
2022/09/01 06:21:18;;;;;;;;;;;17.40;76.90;;;;;;5043839;28;20529;-68
2022/09/01 06:23:45;;;;;;;;;;;17.40;76.90;;;;;;5043553;28;19936;-69
2022/09/01 06:26:16;;;;;;;;;;;17.40;77.00;;;;;;5044383;28;19929;-69
2022/09/01 06:28:43;;;;;;;;;;;17.40;77.00;;;;;;5042316;28;20368;-69
2022/09/01 06:31:11;;;;;;;;;;;17.30;76.90;;;;;;5043196;28;20812;-68
2022/09/01 06:33:39;;;;;;;;;;;17.30;77.00;;;;;;5041483;28;19932;-68
2022/09/01 06:36:07;;;;;;;;;;;17.30;77.00;;;;;;5044884;28;19932;-69
2022/09/01 06:38:33;;;;;;;;;;;17.30;77.10;;;;;;5043043;28;19983;-69
2022/09/01 06:41:01;;;;;;;;;;;17.30;77.10;;;;;;5041721;28;19929;-68
2022/09/01 06:43:29;;;;;;;;;;;17.30;77.20;;;;;;5044064;28;19935;-68
2022/09/01 06:45:56;;;;;;;;;;;17.30;77.00;;;;;;5043754;28;20458;-68
2022/09/01 06:48:23;;;;;;;;;;;17.30;77.30;;;;;;5038296;28;19928;-69
2022/09/01 06:50:50;;;;;;;;;;;17.30;77.30;;;;;;5038542;28;19929;-69
2022/09/01 06:53:20;;;;;;;;;;;17.30;77.50;;;;;;5044203;28;19959;-68
2022/09/01 06:55:48;;;;;;;;;;;17.30;77.50;;;;;;5039773;28;19935;-69
2022/09/01 06:58:15;;;;;;;;;;;17.30;77.50;;;;;;5044082;28;19928;-69
2022/09/01 07:00:42;;;;;;;;;;;17.30;77.50;;;;;;5041883;28;19928;-68
2022/09/01 07:03:09;;;;;;;;;;;17.30;77.60;;;;;;5043119;28;19936;-68
2022/09/01 07:05:38;;;;;;;;;;;17.30;77.50;;;;;;5041890;28;20470;-69
2022/09/01 07:08:08;;;;;;;;;;;17.30;77.60;;;;;;5043729;28;20004;-68
2022/09/01 07:10:39;;;;;;;;;;;17.30;77.70;;;;;;5040212;28;19939;-69
2022/09/01 07:13:07;;;;;;;;;;;17.30;77.60;;;;;;5041935;28;19974;-67
2022/09/01 07:15:34;;;;;;;;;;;17.30;77.60;;;;;;5039203;28;20043;-68
2022/09/01 07:18:00;;;;;;;;;;;17.30;77.60;;;;;;5043300;28;19932;-68
2022/09/01 07:20:30;;;;;;;;;;;17.30;77.60;;;;;;5042585;28;19970;-68
2022/09/01 07:22:57;;;;;;;;;;;17.30;77.70;;;;;;5037304;28;20032;-68
2022/09/01 07:25:24;;;;;;;;;;;17.40;77.60;;;;;;5039762;28;20411;-68
2022/09/01 07:27:51;;;;;;;;;;;17.30;77.50;;;;;;5045445;28;19928;-68
2022/09/01 07:30:19;;;;;;;;;;;17.40;77.60;;;;;;5042564;28;19932;-68
2022/09/01 07:32:47;;;;;;;;;;;17.40;77.70;;;;;;5036978;28;19929;-68
2022/09/01 07:35:15;;;;;;;;;;;17.40;77.60;;;;;;5042016;28;19928;-69
2022/09/01 07:37:41;;;;;;;;;;;17.40;77.60;;;;;;5043562;28;19932;-68
2022/09/01 07:40:09;;;;;;;;;;;17.40;77.70;;;;;;5040273;28;19932;-68
2022/09/01 07:42:39;;;;;;;;;;;17.40;77.70;;;;;;5048898;28;19933;-69
2022/09/01 07:45:09;;;;;;;;;;;17.40;77.60;;;;;;5042461;28;20581;-68
2022/09/01 07:47:36;;;;;;;;;;;17.40;77.60;;;;;;5043915;28;20546;-68
2022/09/01 07:50:07;;;;;;;;;;;17.40;77.70;;;;;;5036784;28;19935;-68
2022/09/01 07:52:34;;;;;;;;;;;17.50;77.70;;;;;;5042970;28;19928;-68
2022/09/01 07:55:01;;;;;;;;;;;17.50;77.70;;;;;;5039750;28;20043;-68
2022/09/01 07:57:27;;;;;;;;;;;17.50;77.60;;;;;;5042458;28;19940;-68
2022/09/01 07:59:56;;;;;;;;;;;17.50;77.40;;;;;;5037993;28;19936;-68
2022/09/01 08:02:23;;;;;;;;;;;17.50;77.60;;;;;;5033060;28;20023;-68
2022/09/01 08:04:49;;;;;;;;;;;17.60;77.60;;;;;;5042905;28;19939;-68
2022/09/01 08:07:16;;;;;;;;;;;17.60;78.50;;;;;;5042502;28;19975;-69
2022/09/01 08:09:43;;;;;;;;;;;17.60;77.70;;;;;;5036157;28;19936;-68
2022/09/01 08:12:09;;;;;;;;;;;17.70;77.90;;;;;;5041538;28;20187;-68
2022/09/01 08:14:36;;;;;;;;;;;17.70;77.70;;;;;;5033498;28;20438;-68
2022/09/01 08:17:04;;;;;;;;;;;17.70;77.70;;;;;;5038831;28;20489;-68
2022/09/01 08:19:30;;;;;;;;;;;17.70;77.70;;;;;;5040425;28;19959;-68
2022/09/01 08:21:57;;;;;;;;;;;17.80;77.70;;;;;;5039532;28;19933;-68
2022/09/01 08:24:23;;;;;;;;;;;17.80;77.60;;;;;;5037664;28;19929;-68
2022/09/01 08:26:50;;;;;;;;;;;17.80;77.50;;;;;;5037499;28;19929;-68
2022/09/01 08:29:17;;;;;;;;;;;17.90;77.40;;;;;;5038154;28;19937;-68
2022/09/01 08:31:43;;;;;;;;;;;17.90;77.30;;;;;;5038102;28;19936;-68
2022/09/01 08:34:11;;;;;;;;;;;17.90;77.20;;;;;;5039141;28;19929;-68
2022/09/01 08:36:38;;;;;;;;;;;18.00;77.30;;;;;;5043351;28;20213;-68
2022/09/01 08:39:05;;;;;;;;;;;18.00;77.30;;;;;;5040014;28;19933;-68
2022/09/01 08:41:36;;;;;;;;;;;18.10;77.40;;;;;;5044445;28;20206;-68
2022/09/01 08:44:08;;;;;;;;;;;18.00;77.40;;;;;;5043290;28;19932;-69
2022/09/01 08:46:38;;;;;;;;;;;18.10;77.40;;;;;;5038590;28;20035;-69
2022/09/01 08:49:08;;;;;;;;;;;18.20;77.20;;;;;;5038509;28;19932;-68
2022/09/01 08:51:38;;;;;;;;;;;18.20;77.10;;;;;;5041232;28;20012;-68
2022/09/01 08:54:10;;;;;;;;;;;18.30;76.90;;;;;;5041098;28;19929;-68
2022/09/01 08:56:37;;;;;;;;;;;18.30;76.50;;;;;;5044549;28;20015;-68
2022/09/01 08:59:05;;;;;;;;;;;18.30;76.30;;;;;;5037715;28;19974;-69
2022/09/01 09:01:36;;;;;;;;;;;18.40;76.30;;;;;;5040423;28;20680;-68
2022/09/01 09:04:15;;;;;;;;;;;18.40;76.10;;;;;;5043462;28;20311;-68
2022/09/01 09:06:47;;;;;;;;;;;18.50;75.90;;;;;;5041758;28;19944;-69
2022/09/01 09:09:13;;;;;;;;;;;18.60;75.60;;;;;;5043523;28;19939;-68
2022/09/01 09:11:44;;;;;;;;;;;18.60;75.20;;;;;;5041286;28;19947;-69
2022/09/01 09:14:14;;;;;;;;;;;18.70;75.20;;;;;;5040839;28;19939;-69
2022/09/01 09:16:42;;;;;;;;;;;18.70;75.00;;;;;;5040853;28;19933;-68
2022/09/01 09:19:10;;;;;;;;;;;18.80;74.70;;;;;;5040668;28;20044;-69
2022/09/01 09:21:37;;;;;;;;;;;18.90;75.00;;;;;;5039992;28;19939;-68
2022/09/01 09:24:09;;;;;;;;;;;18.90;74.30;;;;;;5039767;28;19936;-68
2022/09/01 09:26:36;;;;;;;;;;;18.90;73.90;;;;;;5042073;28;20498;-68
2022/09/01 09:29:02;;;;;;;;;;;19.10;73.70;;;;;;5040350;28;19929;-68
2022/09/01 09:31:30;;;;;;;;;;;19.10;73.60;;;;;;5041744;28;19936;-68
2022/09/01 09:33:57;;;;;;;;;;;19.20;73.20;;;;;;5038681;28;19936;-67
2022/09/01 09:36:30;;;;;;;;;;;19.20;73.50;;;;;;5044556;28;19929;-68
2022/09/01 09:39:12;;;;;;;;;;;19.30;73.20;;;;;;5039272;28;19928;-67
2022/09/01 09:41:39;;;;;;;;;;;19.40;73.00;;;;;;5042096;28;19929;-68
2022/09/01 09:44:14;;;;;;;;;;;19.40;72.60;;;;;;5039371;28;20460;-68
2022/09/01 09:46:42;;;;;;;;;;;19.50;72.50;;;;;;5038016;28;20487;-68
2022/09/01 09:49:10;;;;;;;;;;;19.50;72.10;;;;;;5038821;28;20419;-67
2022/09/01 09:51:37;;;;;;;;;;;19.60;72.30;;;;;;5040827;28;19936;-68
2022/09/01 09:54:12;;;;;;;;;;;19.60;73.60;;;;;;5037721;28;19932;-68
2022/09/01 09:56:40;;;;;;;;;;;19.60;73.30;;;;;;5040791;28;19975;-68
2022/09/01 09:59:17;;;;;;;;;;;19.70;73.60;;;;;;5039877;28;19933;-68
2022/09/01 10:01:44;;;;;;;;;;;19.70;73.70;;;;;;5039608;28;19940;-67
2022/09/01 10:04:10;;;;;;;;;;;19.80;73.50;;;;;;5042484;28;19939;-68
2022/09/01 10:06:39;;;;;;;;;;;19.80;72.00;;;;;;5044307;28;19928;-68
2022/09/01 10:09:07;;;;;;;;;;;19.80;71.10;;;;;;5042850;28;19936;-69
2022/09/01 10:11:38;;;;;;;;;;;19.90;71.90;;;;;;5040495;28;19974;-68
2022/09/01 10:14:06;;;;;;;;;;;20.00;70.20;;;;;;5042846;28;20349;-67
2022/09/01 10:16:34;;;;;;;;;;;20.00;71.60;;;;;;5043237;28;20506;-67
2022/09/01 10:19:01;;;;;;;;;;;20.10;71.00;;;;;;5045712;28;20296;-68
2022/09/01 10:21:31;;;;;;;;;;;20.20;71.80;;;;;;5043042;28;19929;-68
2022/09/01 10:23:58;;;;;;;;;;;20.20;71.00;;;;;;5038137;28;19929;-68
2022/09/01 10:26:27;;;;;;;;;;;20.30;70.70;;;;;;5043721;28;20347;-67
2022/09/01 10:28:58;;;;;;;;;;;20.30;70.00;;;;;;5043272;28;20351;-67
2022/09/01 10:31:25;;;;;;;;;;;20.30;70.00;;;;;;5041962;28;19944;-68
2022/09/01 10:33:52;;;;;;;;;;;20.40;70.00;;;;;;5049400;28;19929;-68
2022/09/01 10:36:19;;;;;;;;;;;20.40;70.20;;;;;;5041101;28;19929;-68
2022/09/01 10:38:47;;;;;;;;;;;20.50;69.80;;;;;;5042603;28;19932;-68
2022/09/01 10:41:29;;;;;;;;;;;20.50;69.70;;;;;;5048149;28;19929;-68
2022/09/01 10:44:07;;;;;;;;;;;20.50;70.50;;;;;;5044032;28;19929;-66
2022/09/01 10:46:43;;;;;;;;;;;20.60;69.90;;;;;;5036619;28;19951;-68
2022/09/01 10:49:18;;;;;;;;;;;20.60;71.40;;;;;;5035910;28;19933;-68
2022/09/01 10:51:45;;;;;;;;;;;20.60;70.50;;;;;;5038685;28;19929;-68
2022/09/01 10:54:45;;;;;;;;;;;20.60;69.20;;;;;;5038700;28;19932;-68
2022/09/01 10:57:21;;;;;;;;;;;20.60;69.40;;;;;;5038363;28;19933;-68
2022/09/01 10:59:49;;;;;;;;;;;20.70;69.00;;;;;;5037608;28;20494;-67
2022/09/01 11:02:17;;;;;;;;;;;20.70;69.40;;;;;;5037826;28;20306;-68
2022/09/01 11:05:03;;;;;;;;;;;20.80;68.90;;;;;;5038674;28;20019;-68
2022/09/01 11:07:30;;;;;;;;;;;20.80;68.30;;;;;;5034114;28;19925;-68
2022/09/01 11:10:10;;;;;;;;;;;20.90;67.80;;;;;;5034170;28;19939;-66
2022/09/01 11:12:43;;;;;;;;;;;21.00;67.60;;;;;;5035780;28;20388;-67
2022/09/01 11:15:28;;;;;;;;;;;21.10;67.60;;;;;;5037324;28;19929;-67
2022/09/01 11:17:58;;;;;;;;;;;21.20;67.60;;;;;;5038316;28;19975;-67
2022/09/01 11:20:27;;;;;;;;;;;21.20;67.40;;;;;;5034646;28;20089;-67
2022/09/01 11:22:59;;;;;;;;;;;21.30;67.20;;;;;;5035273;28;19929;-68
2022/09/01 11:25:44;;;;;;;;;;;21.30;69.40;;;;;;5038413;28;20572;-68
2022/09/01 11:28:25;;;;;;;;;;;21.40;68.30;;;;;;5039089;28;19929;-67
2022/09/01 11:30:54;;;;;;;;;;;21.40;68.30;;;;;;5040532;28;20297;-68
2022/09/01 11:33:35;;;;;;;;;;;21.50;67.40;;;;;;5043617;28;19987;-68
2022/09/01 11:36:05;;;;;;;;;;;21.50;67.40;;;;;;5043517;28;19932;-68
2022/09/01 11:38:37;;;;;;;;;;;21.50;67.10;;;;;;5041625;28;19929;-67
2022/09/01 11:41:04;;;;;;;;;;;21.60;67.30;;;;;;5038673;28;19990;-68
2022/09/01 11:43:31;;;;;;;;;;;21.60;66.60;;;;;;5043237;28;19933;-68
2022/09/01 11:46:01;;;;;;;;;;;21.60;66.70;;;;;;5041718;28;19928;-68
2022/09/01 11:48:29;;;;;;;;;;;21.60;66.20;;;;;;5035431;28;20375;-68
2022/09/01 11:50:58;;;;;;;;;;;21.60;65.90;;;;;;5040956;28;19928;-67
2022/09/01 11:53:26;;;;;;;;;;;21.60;66.70;;;;;;5042965;28;20388;-68
2022/09/01 11:55:54;;;;;;;;;;;21.60;66.10;;;;;;5040871;28;20380;-67
2022/09/01 11:58:33;;;;;;;;;;;21.60;67.30;;;;;;5042902;28;20413;-67
2022/09/01 12:01:12;;;;;;;;;;;21.60;67.40;;;;;;5043733;28;19929;-68
2022/09/01 12:03:39;;;;;;;;;;;21.60;66.50;;;;;;5037678;28;19929;-67
2022/09/01 12:06:07;;;;;;;;;;;21.60;65.70;;;;;;5038990;28;20054;-68
2022/09/01 12:08:36;;;;;;;;;;;21.60;66.50;;;;;;5039016;28;19929;-68
2022/09/01 12:11:04;;;;;;;;;;;21.70;65.80;;;;;;5035782;28;19929;-68
2022/09/01 12:13:30;;;;;;;;;;;21.70;65.00;;;;;;5042779;28;19929;-68
2022/09/01 12:15:58;;;;;;;;;;;21.80;65.30;;;;;;5041615;28;20434;-67
2022/09/01 12:18:26;;;;;;;;;;;21.80;64.90;;;;;;5041899;28;19925;-67
2022/09/01 12:20:54;;;;;;;;;;;21.90;64.80;;;;;;5041334;28;19940;-67
2022/09/01 12:23:24;;;;;;;;;;;21.90;65.10;;;;;;5039406;28;20440;-67
2022/09/01 12:25:54;;;;;;;;;;;22.00;64.90;;;;;;5037698;28;20564;-67
2022/09/01 12:28:22;;;;;;;;;;;22.10;64.60;;;;;;5042813;28;19939;-68
2022/09/01 12:30:49;;;;;;;;;;;22.10;63.70;;;;;;5040097;28;19929;-67
2022/09/01 12:33:17;;;;;;;;;;;22.20;63.90;;;;;;5040307;28;19940;-67
2022/09/01 12:35:44;;;;;;;;;;;22.20;63.60;;;;;;5042935;28;19987;-67
2022/09/01 12:38:21;;;;;;;;;;;22.30;63.60;;;;;;5040816;28;19940;-68
2022/09/01 12:40:49;;;;;;;;;;;22.30;62.70;;;;;;5038332;28;20687;-68
2022/09/01 12:43:28;;;;;;;;;;;22.30;61.80;;;;;;5041795;28;19991;-68
2022/09/01 12:45:56;;;;;;;;;;;22.30;62.30;;;;;;5040962;28;20352;-67
2022/09/01 12:48:28;;;;;;;;;;;22.40;62.30;;;;;;5037195;28;19944;-68
2022/09/01 12:50:54;;;;;;;;;;;22.40;62.30;;;;;;5041785;28;19935;-66
2022/09/01 12:53:27;;;;;;;;;;;22.50;61.70;;;;;;5041734;28;20305;-68
2022/09/01 12:55:55;;;;;;;;;;;22.60;61.50;;;;;;5040665;28;20664;-68
2022/09/01 12:58:24;;;;;;;;;;;22.60;60.70;;;;;;5041878;28;20002;-68
2022/09/01 13:00:57;;;;;;;;;;;22.70;60.90;;;;;;5041777;28;19986;-68
2022/09/01 13:03:26;;;;;;;;;;;22.80;62.30;;;;;;5039953;28;19931;-69
2022/09/01 13:05:53;;;;;;;;;;;22.90;61.30;;;;;;5039852;28;20435;-67
2022/09/01 13:08:20;;;;;;;;;;;22.90;60.50;;;;;;5041424;28;20389;-68
2022/09/01 13:10:48;;;;;;;;;;;23.00;60.20;;;;;;5036378;28;19944;-68
2022/09/01 13:13:15;;;;;;;;;;;23.00;61.10;;;;;;5037643;28;19940;-68
2022/09/01 13:15:46;;;;;;;;;;;23.10;60.20;;;;;;5042167;28;19982;-68
2022/09/01 13:18:14;;;;;;;;;;;23.20;59.40;;;;;;5047914;28;19932;-68
2022/09/01 13:20:41;;;;;;;;;;;23.20;58.80;;;;;;5043566;28;20378;-68
2022/09/01 13:23:08;;;;;;;;;;;23.30;59.10;;;;;;5037764;28;19940;-69
2022/09/01 13:25:35;;;;;;;;;;;23.30;59.30;;;;;;5038071;28;19925;-67
2022/09/01 13:28:02;;;;;;;;;;;23.40;59.30;;;;;;5041869;28;19928;-69
2022/09/01 13:30:30;;;;;;;;;;;23.50;59.70;;;;;;5043636;28;20024;-67
2022/09/01 13:32:57;;;;;;;;;;;23.50;59.10;;;;;;5044606;28;19929;-66
2022/09/01 13:35:25;;;;;;;;;;;23.50;58.10;;;;;;5053998;28;19935;-67
2022/09/01 13:37:51;;;;;;;;;;;23.60;57.80;;;;;;5042996;28;19933;-68
2022/09/01 13:40:19;;;;;;;;;;;23.70;57.90;;;;;;5042017;28;19933;-68
2022/09/01 13:42:47;;;;;;;;;;;23.70;57.80;;;;;;5035161;28;19933;-68
2022/09/01 13:45:15;;;;;;;;;;;23.80;57.40;;;;;;5049200;28;19934;-68
2022/09/01 13:47:42;;;;;;;;;;;23.80;57.60;;;;;;5041406;28;19929;-68
2022/09/01 13:50:09;;;;;;;;;;;23.80;59.20;;;;;;5043047;28;20002;-67
2022/09/01 13:52:38;;;;;;;;;;;23.90;58.70;;;;;;5045043;28;20036;-68
2022/09/01 13:55:04;;;;;;;;;;;23.90;58.10;;;;;;5042876;28;19933;-68
2022/09/01 13:57:32;;;;;;;;;;;23.90;57.90;;;;;;5044612;28;19994;-68
2022/09/01 13:59:59;;;;;;;;;;;23.90;57.60;;;;;;5044275;28;19929;-67
2022/09/01 14:02:26;;;;;;;;;;;23.90;57.90;;;;;;5046072;28;19929;-68
2022/09/01 14:04:52;;;;;;;;;;;24.00;57.50;;;;;;5041949;28;20343;-68
2022/09/01 14:07:19;;;;;;;;;;;24.00;57.20;;;;;;5045536;28;19936;-68
2022/09/01 14:09:47;;;;;;;;;;;24.10;57.70;;;;;;5042838;28;19935;-68
2022/09/01 14:12:13;;;;;;;;;;;24.10;56.80;;;;;;5044459;28;19925;-68
2022/09/01 14:14:40;;;;;;;;;;;24.20;57.30;;;;;;5043434;28;20293;-68
2022/09/01 14:17:08;;;;;;;;;;;24.20;57.30;;;;;;5043773;28;20580;-68
2022/09/01 14:19:35;;;;;;;;;;;24.30;57.00;;;;;;5044054;28;19936;-68
2022/09/01 14:22:04;;;;;;;;;;;24.30;56.20;;;;;;5042099;28;19940;-68
2022/09/01 14:24:31;;;;;;;;;;;24.40;56.30;;;;;;5038424;28;20436;-70
2022/09/01 14:26:59;;;;;;;;;;;24.50;54.80;;;;;;5041889;28;19933;-66
2022/09/01 14:29:26;;;;;;;;;;;24.90;53.30;;;;;;5041521;28;19936;-66